createdAt,value
2023-02-24T00:00:32.112Z,8.38
2023-02-24T00:03:06.377Z,9.02
2023-02-24T00:05:39.827Z,8.43
2023-02-24T00:08:08.122Z,8.00
2023-02-24T00:10:37.589Z,8.48
2023-02-24T00:13:05.824Z,9.18
2023-02-24T00:15:34.183Z,8.85
2023-02-24T00:18:07.098Z,10.48
2023-02-24T00:20:37.304Z,7.88
2023-02-24T00:23:05.515Z,8.27
2023-02-24T00:25:33.606Z,8.43
2023-02-24T00:28:02.520Z,9.07
2023-02-24T00:30:33.023Z,9.60
2023-02-24T00:33:04.498Z,8.88
2023-02-24T00:35:33.300Z,8.10
2023-02-24T00:38:01.385Z,8.35
2023-02-24T00:40:30.424Z,8.07
2023-02-24T00:42:59.170Z,8.05
2023-02-24T00:45:30.930Z,8.85
2023-02-24T00:47:59.311Z,8.55
2023-02-24T00:50:28.768Z,9.43
2023-02-24T00:52:57.029Z,8.57
2023-02-24T00:55:27.837Z,8.68
2023-02-24T00:57:56.326Z,7.65
2023-02-24T01:00:24.708Z,10.00
2023-02-24T01:02:52.982Z,8.30
2023-02-24T01:05:27.903Z,9.07
2023-02-24T01:07:58.104Z,8.25
2023-02-24T01:10:28.421Z,8.85
2023-02-24T01:12:55.573Z,10.68
2023-02-24T01:15:24.376Z,9.23
2023-02-24T01:17:52.459Z,8.57
2023-02-24T01:20:21.008Z,8.52
2023-02-24T01:22:50.829Z,9.00
2023-02-24T01:25:21.297Z,9.90
2023-02-24T01:27:50.661Z,9.70
2023-02-24T01:30:19.132Z,8.73
2023-02-24T01:32:48.453Z,8.63
2023-02-24T01:35:17.724Z,7.82
2023-02-24T01:37:46.358Z,9.50
2023-02-24T01:40:18.657Z,9.10
2023-02-24T01:42:50.971Z,8.45
2023-02-24T01:45:25.002Z,8.27
2023-02-24T01:47:57.877Z,8.05
2023-02-24T01:50:27.773Z,10.23
2023-02-24T01:53:01.609Z,9.77
2023-02-24T01:55:34.024Z,8.18
2023-02-24T01:58:09.963Z,7.47
2023-02-24T02:00:39.001Z,9.77
2023-02-24T02:03:16.446Z,8.13
2023-02-24T02:05:48.514Z,7.72
2023-02-24T02:08:19.008Z,8.40
2023-02-24T02:10:48.087Z,8.98
2023-02-24T02:13:21.127Z,8.73
2023-02-24T02:16:02.970Z,7.57
2023-02-24T02:18:44.073Z,8.35
2023-02-24T02:21:49.414Z,9.32
2023-02-24T02:24:38.134Z,8.27
2023-02-24T02:27:30.089Z,8.73
2023-02-24T02:30:36.111Z,7.68
2023-02-24T02:33:27.650Z,9.13
2023-02-24T02:36:07.367Z,7.85
2023-02-24T02:38:43.080Z,8.50
2023-02-24T02:41:22.196Z,8.60
2023-02-24T02:43:55.502Z,9.60
2023-02-24T02:49:12.919Z,10.02
2023-02-24T02:51:47.349Z,8.18
2023-02-24T02:54:21.256Z,8.40
2023-02-24T02:56:53.213Z,8.93
2023-02-24T02:59:26.121Z,7.82
2023-02-24T03:02:01.212Z,8.02
2023-02-24T03:04:30.820Z,7.90
2023-02-24T03:07:03.370Z,7.80
2023-02-24T03:09:36.197Z,7.72
2023-02-24T03:12:09.154Z,9.02
2023-02-24T03:14:40.940Z,8.23
2023-02-24T03:17:14.906Z,8.30
2023-02-24T03:19:54.168Z,7.80
2023-02-24T03:22:33.815Z,7.22
2023-02-24T03:25:03.754Z,9.02
2023-02-24T03:27:39.834Z,8.50
2023-02-24T03:30:15.832Z,8.82
2023-02-24T03:32:55.842Z,8.60
2023-02-24T03:35:26.354Z,8.38
2023-02-24T03:37:57.827Z,8.20
2023-02-24T03:40:32.982Z,9.48
2023-02-24T03:43:05.437Z,8.38
2023-02-24T03:45:38.086Z,7.30
2023-02-24T03:48:07.790Z,7.15
2023-02-24T03:50:38.064Z,7.75
2023-02-24T03:53:22.379Z,7.03
2023-02-24T03:56:01.712Z,8.05
2023-02-24T03:58:40.106Z,6.90
2023-02-24T04:01:16.147Z,7.15
2023-02-24T04:03:57.683Z,7.38
2023-02-24T04:06:35.395Z,9.35
2023-02-24T04:09:13.284Z,9.05
2023-02-24T04:11:47.551Z,7.55
2023-02-24T04:14:24.729Z,7.63
2023-02-24T04:17:01.110Z,7.00
2023-02-24T04:19:31.082Z,7.63
2023-02-24T04:22:00.616Z,8.25
2023-02-24T04:24:33.449Z,7.70
2023-02-24T04:27:06.377Z,8.90
2023-02-24T04:29:40.358Z,9.30
2023-02-24T04:32:11.569Z,9.15
2023-02-24T04:34:41.251Z,8.05
2023-02-24T04:37:10.160Z,7.55
2023-02-24T04:39:39.748Z,7.22
2023-02-24T04:42:08.495Z,7.15
2023-02-24T04:44:36.774Z,8.45
2023-02-24T04:47:05.056Z,8.88
2023-02-24T04:49:34.071Z,9.43
2023-02-24T04:52:02.450Z,7.93
2023-02-24T04:54:30.529Z,7.53
2023-02-24T04:57:00.044Z,7.72
2023-02-24T04:59:29.116Z,8.20
2023-02-24T05:02:01.462Z,8.20
2023-02-24T05:04:31.809Z,9.15
2023-02-24T05:07:00.332Z,8.00
2023-02-24T05:09:30.227Z,6.45
2023-02-24T05:12:00.393Z,8.35
2023-02-24T05:14:28.645Z,8.15
2023-02-24T05:17:00.448Z,7.93
2023-02-24T05:19:54.385Z,7.35
2023-02-24T05:24:51.192Z,9.20
2023-02-24T05:27:21.028Z,7.68
2023-02-24T05:29:49.601Z,8.63
2023-02-24T05:32:18.984Z,8.85
2023-02-24T05:34:47.234Z,8.18
2023-02-24T05:37:16.747Z,7.68
2023-02-24T05:39:45.136Z,8.35
2023-02-24T05:42:13.327Z,8.52
2023-02-24T05:44:42.823Z,10.27
2023-02-24T05:47:11.288Z,7.70
2023-02-24T05:49:39.530Z,9.88
2023-02-24T05:52:10.100Z,7.47
2023-02-24T05:54:40.389Z,9.60
2023-02-24T05:57:12.061Z,7.63
2023-02-24T05:59:42.564Z,8.40
2023-02-24T06:02:13.134Z,8.80
2023-02-24T06:04:51.180Z,8.85
2023-02-24T06:07:22.842Z,8.02
2023-02-24T06:09:54.088Z,7.72
2023-02-24T06:12:24.500Z,8.70
2023-02-24T06:14:54.078Z,8.15
2023-02-24T06:17:23.106Z,8.80
2023-02-24T06:19:53.450Z,8.25
2023-02-24T06:22:24.435Z,9.63
2023-02-24T06:24:54.412Z,9.20
2023-02-24T06:27:24.923Z,7.70
2023-02-24T06:29:56.743Z,8.38
2023-02-24T06:32:27.344Z,8.68
2023-02-24T06:34:57.528Z,8.57
2023-02-24T06:37:25.747Z,9.23
2023-02-24T06:39:54.236Z,9.10
2023-02-24T06:42:22.517Z,8.75
2023-02-24T06:44:51.167Z,9.00
2023-02-24T06:47:22.660Z,8.55
2023-02-24T06:49:51.480Z,9.25
2023-02-24T06:52:19.777Z,10.50
2023-02-24T06:54:49.553Z,8.82
2023-02-24T06:57:20.379Z,8.55
2023-02-24T06:59:48.991Z,8.95
2023-02-24T07:02:18.577Z,10.02
2023-02-24T07:04:48.360Z,9.27
2023-02-24T07:07:17.481Z,8.75
2023-02-24T07:09:46.097Z,10.15
2023-02-24T07:12:20.964Z,9.20
2023-02-24T07:14:50.518Z,9.60
2023-02-24T07:17:19.846Z,9.63
2023-02-24T07:19:49.311Z,8.52
2023-02-24T07:22:17.624Z,9.93
2023-02-24T07:24:46.721Z,7.97
2023-02-24T07:27:22.388Z,10.60
2023-02-24T07:29:53.392Z,9.05
2023-02-24T07:32:22.690Z,9.23
2023-02-24T07:34:53.025Z,8.73
2023-02-24T07:37:23.209Z,9.68
2023-02-24T07:39:51.821Z,10.27
2023-02-24T07:42:20.001Z,8.50
2023-02-24T07:44:49.280Z,8.38
2023-02-24T07:47:17.655Z,9.48
2023-02-24T07:49:46.393Z,8.55
2023-02-24T07:52:16.449Z,9.98
2023-02-24T07:54:49.717Z,8.32
2023-02-24T07:59:48.148Z,10.23
2023-02-24T08:02:16.937Z,9.15
2023-02-24T08:04:50.373Z,9.25
2023-02-24T08:07:25.001Z,8.50
2023-02-24T08:10:14.224Z,7.97
2023-02-24T08:12:47.595Z,9.05
2023-02-24T08:15:23.797Z,8.60
2023-02-24T08:17:53.222Z,9.73
2023-02-24T08:20:29.859Z,8.00
2023-02-24T08:22:59.453Z,9.15
2023-02-24T08:25:35.911Z,9.80
2023-02-24T08:28:09.481Z,10.70
2023-02-24T08:30:40.427Z,8.75
2023-02-24T08:33:10.885Z,8.80
2023-02-24T08:35:44.806Z,8.40
2023-02-24T08:38:17.751Z,8.60
2023-02-24T08:40:51.583Z,8.85
2023-02-24T08:43:32.776Z,8.73
2023-02-24T08:46:05.466Z,9.57
2023-02-24T08:48:38.591Z,8.93
2023-02-24T08:53:41.484Z,8.80
2023-02-24T08:56:12.420Z,9.98
2023-02-24T08:58:47.047Z,8.40
2023-02-24T09:01:24.343Z,8.18
2023-02-24T09:03:56.440Z,9.90
2023-02-24T09:06:35.354Z,10.50
2023-02-24T09:09:22.628Z,11.10
2023-02-24T09:11:56.081Z,9.45
2023-02-24T09:14:28.415Z,10.60
2023-02-24T09:17:06.059Z,9.40
2023-02-24T09:20:02.193Z,9.70
2023-02-24T09:22:32.508Z,10.00
2023-02-24T09:25:21.591Z,10.23
2023-02-24T09:27:55.871Z,9.73
2023-02-24T09:30:36.901Z,8.57
2023-02-24T09:33:17.713Z,10.45
2023-02-24T09:35:47.897Z,9.65
2023-02-24T09:38:18.044Z,11.13
2023-02-24T09:40:50.111Z,9.20
2023-02-24T09:43:24.365Z,8.55
2023-02-24T09:45:59.358Z,10.23
2023-02-24T09:48:43.994Z,9.88
2023-02-24T09:51:21.818Z,9.75
2023-02-24T09:53:54.582Z,10.10
2023-02-24T09:56:37.168Z,10.55
2023-02-24T09:59:13.696Z,9.70
2023-02-24T10:01:47.462Z,10.55
2023-02-24T10:04:27.520Z,10.38
2023-02-24T10:07:03.036Z,9.77
2023-02-24T10:09:36.727Z,10.05
2023-02-24T10:12:16.269Z,10.02
2023-02-24T10:14:52.977Z,10.95
2023-02-24T10:17:40.047Z,11.27
2023-02-24T10:20:30.928Z,10.25
2023-02-24T10:23:09.795Z,9.70
2023-02-24T10:25:53.850Z,10.23
2023-02-24T10:28:35.990Z,10.23
2023-02-24T10:31:25.641Z,11.18
2023-02-24T10:33:57.064Z,11.57
2023-02-24T10:36:35.205Z,9.88
2023-02-24T10:39:10.818Z,10.68
2023-02-24T10:41:47.467Z,10.45
2023-02-24T10:44:25.026Z,10.10
2023-02-24T10:47:11.600Z,11.25
2023-02-24T10:49:56.758Z,10.80
2023-02-24T10:52:37.112Z,13.68
2023-02-24T10:55:27.869Z,11.38
2023-02-24T10:58:06.191Z,11.43
2023-02-24T11:00:59.058Z,11.63
2023-02-24T11:03:36.187Z,11.80
2023-02-24T11:06:20.153Z,11.90
2023-02-24T11:09:18.892Z,12.18
2023-02-24T11:12:10.044Z,11.70
2023-02-24T11:15:08.866Z,11.02
2023-02-24T11:17:46.421Z,13.85
2023-02-24T11:20:26.153Z,12.35
2023-02-24T11:22:57.660Z,11.77
2023-02-24T11:25:36.809Z,11.77
2023-02-24T11:28:05.838Z,11.85
2023-02-24T11:30:43.450Z,10.95
2023-02-24T11:33:30.441Z,11.52
2023-02-24T11:36:06.063Z,11.77
2023-02-24T11:38:43.233Z,11.80
2023-02-24T11:41:20.599Z,11.43
2023-02-24T11:43:58.968Z,12.20
2023-02-24T11:46:37.174Z,11.32
2023-02-24T11:49:23.082Z,12.05
2023-02-24T11:51:52.747Z,10.82
2023-02-24T11:54:23.262Z,11.60
2023-02-24T11:56:55.963Z,11.52
2023-02-24T11:59:32.703Z,12.13
2023-02-24T12:02:12.085Z,12.02
2023-02-24T12:04:51.039Z,10.68
2023-02-24T12:07:25.264Z,10.57
2023-02-24T12:10:06.969Z,11.10
2023-02-24T12:12:48.804Z,11.95
2023-02-24T12:15:24.592Z,10.65
2023-02-24T12:18:01.933Z,11.95
2023-02-24T12:20:36.027Z,10.65
2023-02-24T12:23:15.726Z,12.13
2023-02-24T12:25:58.939Z,10.93
2023-02-24T12:28:43.618Z,10.75
2023-02-24T12:31:25.524Z,11.00
2023-02-24T12:34:04.088Z,11.63
2023-02-24T12:36:53.680Z,11.52
2023-02-24T12:39:23.622Z,11.43
2023-02-24T12:42:05.788Z,12.40
2023-02-24T12:44:42.695Z,12.43
2023-02-24T12:47:13.633Z,10.45
2023-02-24T12:50:06.801Z,10.85
2023-02-24T12:52:48.880Z,11.30
2023-02-24T12:55:26.587Z,11.25
2023-02-24T12:58:05.155Z,11.57
2023-02-24T13:00:41.932Z,10.50
2023-02-24T13:03:29.393Z,10.82
2023-02-24T13:06:07.534Z,10.00
2023-02-24T13:08:49.810Z,12.90
2023-02-24T13:11:28.850Z,12.38
2023-02-24T13:14:04.216Z,12.70
2023-02-24T13:16:35.141Z,12.35
2023-02-24T13:19:09.385Z,12.73
2023-02-24T13:21:39.996Z,13.27
2023-02-24T13:24:23.358Z,13.05
2023-02-24T13:26:51.467Z,14.30
2023-02-24T13:29:19.717Z,13.15
2023-02-24T13:31:50.139Z,14.27
2023-02-24T13:34:32.709Z,14.48
2023-02-24T13:37:01.253Z,15.82
2023-02-24T13:39:35.766Z,13.77
2023-02-24T13:42:07.170Z,15.18
2023-02-24T13:44:35.574Z,15.30
2023-02-24T13:47:32.306Z,14.98
2023-02-24T13:50:25.152Z,15.38
2023-02-24T13:53:10.444Z,13.68
2023-02-24T13:56:05.634Z,13.40
2023-02-24T13:59:01.576Z,18.02
2023-02-24T14:01:32.745Z,13.88
2023-02-24T14:04:14.510Z,14.55
2023-02-24T14:06:48.365Z,14.43
2023-02-24T14:09:22.622Z,14.38
2023-02-24T14:11:57.218Z,13.10
2023-02-24T14:14:26.294Z,14.02
2023-02-24T14:16:56.256Z,13.50
2023-02-24T14:19:26.829Z,12.07
2023-02-24T14:21:56.966Z,12.57
2023-02-24T14:24:27.674Z,13.38
2023-02-24T14:26:59.762Z,12.70
2023-02-24T14:32:01.450Z,13.90
2023-02-24T14:34:33.939Z,11.60
2023-02-24T14:37:05.219Z,13.60
2023-02-24T14:39:34.274Z,11.55
2023-02-24T14:42:13.431Z,12.45
2023-02-24T14:44:43.532Z,12.57
2023-02-24T14:47:14.276Z,12.77
2023-02-24T14:49:43.386Z,13.73
2023-02-24T14:52:24.769Z,11.57
2023-02-24T14:54:58.553Z,12.32
2023-02-24T14:57:30.700Z,11.57
2023-02-24T15:00:10.320Z,11.83
2023-02-24T15:02:42.019Z,11.20
2023-02-24T15:05:11.488Z,11.00
2023-02-24T15:07:40.363Z,11.43
2023-02-24T15:10:21.111Z,11.90
2023-02-24T15:12:55.392Z,11.13
2023-02-24T15:15:27.128Z,10.27
2023-02-24T15:17:58.621Z,11.18
2023-02-24T15:20:33.284Z,10.52
2023-02-24T15:23:02.084Z,11.48
2023-02-24T15:25:42.153Z,10.82
2023-02-24T15:28:26.812Z,12.77
2023-02-24T15:31:01.878Z,11.93
2023-02-24T15:33:35.682Z,12.32
2023-02-24T15:36:08.142Z,13.20
2023-02-24T15:38:38.265Z,12.15
2023-02-24T15:41:08.221Z,10.45
2023-02-24T15:43:39.984Z,10.68
2023-02-24T15:46:29.289Z,11.68
2023-02-24T15:49:01.693Z,11.77
2023-02-24T15:51:36.163Z,12.32
2023-02-24T15:54:06.313Z,11.45
2023-02-24T15:56:36.453Z,11.90
2023-02-24T15:59:06.300Z,10.35
2023-02-24T16:01:34.937Z,11.93
2023-02-24T16:04:04.698Z,12.18
2023-02-24T16:06:34.003Z,10.55
2023-02-24T16:09:05.245Z,10.70
2023-02-24T16:11:38.611Z,11.75
2023-02-24T16:16:39.326Z,10.65
2023-02-24T16:19:09.810Z,11.70
2023-02-24T16:21:38.021Z,10.80
2023-02-24T16:24:06.593Z,12.77
2023-02-24T16:26:38.704Z,12.15
2023-02-24T16:29:14.046Z,11.90
2023-02-24T16:31:43.108Z,12.55
2023-02-24T16:34:15.849Z,12.73
2023-02-24T16:36:44.514Z,11.70
2023-02-24T16:39:14.877Z,13.38
2023-02-24T16:41:43.110Z,11.88
2023-02-24T16:44:12.572Z,13.20
2023-02-24T16:46:44.580Z,10.82
2023-02-24T16:49:19.560Z,12.10
2023-02-24T16:51:48.151Z,13.15
2023-02-24T16:54:16.384Z,12.80
2023-02-24T16:56:45.328Z,14.30
2023-02-24T16:59:14.820Z,13.23
2023-02-24T17:01:43.647Z,14.70
2023-02-24T17:04:13.464Z,12.00
2023-02-24T17:06:41.897Z,12.13
2023-02-24T17:09:10.011Z,11.88
2023-02-24T17:11:38.308Z,12.98
2023-02-24T17:14:06.439Z,10.68
2023-02-24T17:16:39.440Z,11.52
2023-02-24T17:19:07.565Z,10.30
2023-02-24T17:21:35.760Z,11.70
2023-02-24T17:24:03.844Z,13.48
2023-02-24T17:26:31.991Z,11.38
2023-02-24T17:29:00.113Z,12.15
2023-02-24T17:31:31.765Z,11.98
2023-02-24T17:34:01.930Z,11.00
2023-02-24T17:36:30.263Z,10.82
2023-02-24T17:38:58.511Z,10.55
2023-02-24T17:41:27.287Z,10.38
2023-02-24T17:43:55.825Z,11.18
2023-02-24T17:46:24.297Z,11.23
2023-02-24T17:48:52.557Z,11.02
2023-02-24T17:51:22.500Z,9.80
2023-02-24T17:53:50.580Z,12.20
2023-02-24T17:56:18.638Z,12.55
2023-02-24T17:58:46.986Z,13.27
2023-02-24T18:01:15.043Z,11.05
2023-02-24T18:03:43.263Z,11.90
2023-02-24T18:06:12.882Z,10.98
2023-02-24T18:08:42.292Z,11.63
2023-02-24T18:11:14.885Z,11.48
2023-02-24T18:13:42.992Z,12.00
2023-02-24T18:16:12.958Z,11.40
2023-02-24T18:18:41.649Z,10.77
2023-02-24T18:21:09.866Z,11.57
2023-02-24T18:23:40.399Z,12.30
2023-02-24T18:26:12.614Z,10.98
2023-02-24T18:28:41.095Z,14.30
2023-02-24T18:31:14.170Z,11.82
2023-02-24T18:33:42.652Z,12.43
2023-02-24T18:38:57.621Z,13.15
2023-02-24T18:43:56.680Z,10.80
2023-02-24T18:46:26.949Z,12.25
2023-02-24T18:48:57.309Z,12.65
2023-02-24T18:51:27.320Z,10.65
2023-02-24T18:53:58.850Z,12.77
2023-02-24T18:56:29.608Z,10.98
2023-02-24T18:58:59.707Z,12.90
2023-02-24T19:01:30.130Z,12.30
2023-02-24T19:03:59.628Z,11.50
2023-02-24T19:06:30.022Z,11.45
2023-02-24T19:09:02.110Z,14.13
2023-02-24T19:11:30.784Z,12.40
2023-02-24T19:14:00.529Z,13.05
2023-02-24T19:16:29.553Z,11.90
2023-02-24T19:18:58.881Z,11.57
2023-02-24T19:21:29.600Z,12.10
2023-02-24T19:24:00.199Z,12.75
2023-02-24T19:26:29.184Z,15.02
2023-02-24T19:28:59.157Z,11.25
2023-02-24T19:31:29.093Z,12.23
2023-02-24T19:34:00.221Z,11.27
2023-02-24T19:36:32.549Z,11.25
2023-02-24T19:39:02.269Z,10.05
2023-02-24T19:41:30.630Z,11.90
2023-02-24T19:43:58.818Z,11.57
2023-02-24T19:46:27.389Z,12.88
2023-02-24T19:48:57.331Z,11.38
2023-02-24T19:51:28.386Z,11.07
2023-02-24T19:53:59.311Z,11.02
2023-02-24T19:56:30.450Z,12.38
2023-02-24T19:59:00.624Z,11.38
2023-02-24T20:01:29.985Z,9.70
2023-02-24T20:04:00.792Z,9.85
2023-02-24T20:06:31.806Z,10.57
2023-02-24T20:09:01.269Z,12.25
2023-02-24T20:11:32.906Z,9.77
2023-02-24T20:14:01.034Z,12.30
2023-02-24T20:16:32.593Z,11.48
2023-02-24T20:19:01.186Z,12.25
2023-02-24T20:21:29.545Z,12.40
2023-02-24T20:24:00.114Z,12.60
2023-02-24T20:26:30.384Z,11.02
2023-02-24T20:28:58.638Z,10.25
2023-02-24T20:31:26.942Z,9.60
2023-02-24T20:33:56.473Z,11.82
2023-02-24T20:36:26.826Z,9.48
2023-02-24T20:38:56.680Z,10.07
2023-02-24T20:41:24.882Z,9.82
2023-02-24T20:43:55.255Z,10.00
2023-02-24T20:46:26.115Z,10.55
2023-02-24T20:48:58.101Z,13.15
2023-02-24T20:51:27.772Z,8.57
2023-02-24T20:53:58.460Z,10.32
2023-02-24T20:56:33.032Z,11.55
2023-02-24T20:59:05.237Z,10.05
2023-02-24T21:01:34.607Z,10.35
2023-02-24T21:04:03.727Z,9.40
2023-02-24T21:06:32.282Z,10.50
2023-02-24T21:09:00.647Z,10.13
2023-02-24T21:11:29.788Z,8.27
2023-02-24T21:13:58.259Z,10.35
2023-02-24T21:16:28.246Z,7.32
2023-02-24T21:18:58.723Z,9.82
2023-02-24T21:21:27.790Z,9.38
2023-02-24T21:23:56.649Z,9.27
2023-02-24T21:26:26.901Z,8.45
2023-02-24T21:28:57.954Z,8.10
2023-02-24T21:31:28.653Z,8.35
2023-02-24T21:33:57.367Z,8.88
2023-02-24T21:36:27.952Z,10.23
2023-02-24T21:38:56.591Z,9.38
2023-02-24T21:41:25.081Z,10.05
2023-02-24T21:43:54.761Z,9.63
2023-02-24T21:46:24.664Z,8.68
2023-02-24T21:48:57.003Z,10.50
2023-02-24T21:51:25.945Z,8.93
2023-02-24T21:53:55.321Z,8.45
2023-02-24T21:56:25.210Z,9.93
2023-02-24T21:58:55.195Z,9.90
2023-02-24T22:01:25.377Z,9.73
2023-02-24T22:03:56.731Z,9.05
2023-02-24T22:06:29.016Z,12.38
2023-02-24T22:08:59.152Z,11.00
2023-02-24T22:11:27.648Z,10.32
2023-02-24T22:13:55.835Z,10.70
2023-02-24T22:16:26.711Z,11.02
2023-02-24T22:18:56.952Z,8.73
2023-02-24T22:21:27.132Z,10.93
2023-02-24T22:23:58.121Z,11.07
2023-02-24T22:26:26.792Z,9.18
2023-02-24T22:28:56.324Z,9.40
2023-02-24T22:31:26.679Z,11.40
2023-02-24T22:33:56.158Z,10.30
2023-02-24T22:36:26.262Z,10.52
2023-02-24T22:38:56.464Z,11.40
2023-02-24T22:41:27.586Z,10.70
2023-02-24T22:43:55.750Z,10.63
2023-02-24T22:46:26.699Z,11.30
2023-02-24T22:48:57.816Z,10.02
2023-02-24T22:51:27.237Z,11.23
2023-02-24T22:53:56.414Z,10.13
2023-02-24T22:56:26.979Z,10.35
2023-02-24T22:58:55.126Z,11.00
2023-02-24T23:01:25.659Z,9.52
2023-02-24T23:03:54.470Z,9.25
2023-02-24T23:06:25.912Z,10.18
2023-02-24T23:08:55.031Z,9.20
2023-02-24T23:11:27.668Z,11.93
2023-02-24T23:13:57.551Z,12.20
2023-02-24T23:16:29.444Z,10.68
2023-02-24T23:19:00.913Z,9.35
2023-02-24T23:21:35.364Z,10.32
2023-02-24T23:24:04.182Z,11.10
2023-02-24T23:26:33.332Z,10.38
2023-02-24T23:29:01.759Z,10.55
2023-02-24T23:31:30.542Z,12.05
2023-02-24T23:33:59.429Z,12.20
2023-02-24T23:36:27.671Z,9.52
2023-02-24T23:38:57.989Z,10.35
2023-02-24T23:41:26.132Z,10.82
2023-02-24T23:43:54.560Z,11.25
2023-02-24T23:46:23.226Z,14.55
2023-02-24T23:48:53.076Z,10.07
2023-02-24T23:51:21.477Z,10.90
2023-02-24T23:53:50.223Z,11.82
2023-02-24T23:56:21.676Z,11.60
2023-02-24T23:58:51.888Z,12.30
